sensor_id;sensor_type;location;lat;lon;timestamp;temperature;humidity
12309;DHT22;6217;48.150;17.142;2023-04-06T00:00:53;5.00;46.70
12309;DHT22;6217;48.150;17.142;2023-04-06T00:04:59;4.90;46.80
12309;DHT22;6217;48.150;17.142;2023-04-06T00:09:05;4.90;46.90
12309;DHT22;6217;48.150;17.142;2023-04-06T00:13:11;4.90;47.50
12309;DHT22;6217;48.150;17.142;2023-04-06T00:17:17;4.90;46.90
12309;DHT22;6217;48.150;17.142;2023-04-06T00:21:23;4.90;46.90
12309;DHT22;6217;48.150;17.142;2023-04-06T00:25:31;4.90;46.90
12309;DHT22;6217;48.150;17.142;2023-04-06T00:29:36;4.90;46.80
12309;DHT22;6217;48.150;17.142;2023-04-06T00:33:44;4.90;46.80
12309;DHT22;6217;48.150;17.142;2023-04-06T00:37:50;4.90;46.90
12309;DHT22;6217;48.150;17.142;2023-04-06T00:41:56;4.90;46.90
12309;DHT22;6217;48.150;17.142;2023-04-06T00:46:02;4.90;46.90
12309;DHT22;6217;48.150;17.142;2023-04-06T00:50:08;4.90;47.00
12309;DHT22;6217;48.150;17.142;2023-04-06T00:54:15;4.90;47.10
12309;DHT22;6217;48.150;17.142;2023-04-06T00:58:22;4.90;47.10
12309;DHT22;6217;48.150;17.142;2023-04-06T01:02:33;4.90;47.20
12309;DHT22;6217;48.150;17.142;2023-04-06T01:06:39;4.90;47.20
12309;DHT22;6217;48.150;17.142;2023-04-06T01:10:46;4.90;47.30
12309;DHT22;6217;48.150;17.142;2023-04-06T01:15:03;4.80;47.40
12309;DHT22;6217;48.150;17.142;2023-04-06T01:19:13;4.80;47.60
12309;DHT22;6217;48.150;17.142;2023-04-06T01:23:24;4.70;47.80
12309;DHT22;6217;48.150;17.142;2023-04-06T01:27:30;4.70;47.80
12309;DHT22;6217;48.150;17.142;2023-04-06T01:32:02;4.70;47.70
12309;DHT22;6217;48.150;17.142;2023-04-06T01:36:13;4.70;47.80
12309;DHT22;6217;48.150;17.142;2023-04-06T01:40:21;4.70;47.60
12309;DHT22;6217;48.150;17.142;2023-04-06T01:44:29;4.60;47.70
12309;DHT22;6217;48.150;17.142;2023-04-06T01:48:47;4.60;48.00
12309;DHT22;6217;48.150;17.142;2023-04-06T01:53:08;4.50;48.00
12309;DHT22;6217;48.150;17.142;2023-04-06T01:57:16;4.50;48.10
12309;DHT22;6217;48.150;17.142;2023-04-06T02:01:26;4.50;48.20
12309;DHT22;6217;48.150;17.142;2023-04-06T02:05:35;4.40;48.30
12309;DHT22;6217;48.150;17.142;2023-04-06T02:09:54;4.40;48.40
12309;DHT22;6217;48.150;17.142;2023-04-06T02:14:05;4.40;48.40
12309;DHT22;6217;48.150;17.142;2023-04-06T02:18:17;4.40;48.40
12309;DHT22;6217;48.150;17.142;2023-04-06T02:22:23;4.40;48.60
12309;DHT22;6217;48.150;17.142;2023-04-06T02:26:30;4.40;48.70
12309;DHT22;6217;48.150;17.142;2023-04-06T02:30:36;4.40;48.80
12309;DHT22;6217;48.150;17.142;2023-04-06T02:34:42;4.40;48.90
12309;DHT22;6217;48.150;17.142;2023-04-06T02:38:49;4.30;49.00
12309;DHT22;6217;48.150;17.142;2023-04-06T02:42:56;4.30;49.10
12309;DHT22;6217;48.150;17.142;2023-04-06T02:47:08;4.30;49.20
12309;DHT22;6217;48.150;17.142;2023-04-06T02:51:15;4.30;49.30
12309;DHT22;6217;48.150;17.142;2023-04-06T02:55:26;4.30;49.40
12309;DHT22;6217;48.150;17.142;2023-04-06T02:59:32;4.30;50.00
12309;DHT22;6217;48.150;17.142;2023-04-06T03:03:48;4.30;49.60
12309;DHT22;6217;48.150;17.142;2023-04-06T03:08:02;4.30;49.70
12309;DHT22;6217;48.150;17.142;2023-04-06T03:12:20;4.30;50.40
12309;DHT22;6217;48.150;17.142;2023-04-06T03:16:55;4.30;50.00
12309;DHT22;6217;48.150;17.142;2023-04-06T03:21:03;4.30;50.30
12309;DHT22;6217;48.150;17.142;2023-04-06T03:25:35;4.30;50.60
12309;DHT22;6217;48.150;17.142;2023-04-06T03:29:44;4.20;50.70
12309;DHT22;6217;48.150;17.142;2023-04-06T03:33:54;4.20;51.00
12309;DHT22;6217;48.150;17.142;2023-04-06T03:38:12;4.20;51.30
12309;DHT22;6217;48.150;17.142;2023-04-06T03:42:18;4.10;51.40
12309;DHT22;6217;48.150;17.142;2023-04-06T03:46:30;4.20;51.70
12309;DHT22;6217;48.150;17.142;2023-04-06T03:50:38;4.20;51.80
12309;DHT22;6217;48.150;17.142;2023-04-06T03:54:45;4.20;51.90
12309;DHT22;6217;48.150;17.142;2023-04-06T03:58:51;4.20;52.20
12309;DHT22;6217;48.150;17.142;2023-04-06T04:02:59;4.10;52.30
12309;DHT22;6217;48.150;17.142;2023-04-06T04:07:07;4.10;52.50
12309;DHT22;6217;48.150;17.142;2023-04-06T04:11:14;4.10;52.70
12309;DHT22;6217;48.150;17.142;2023-04-06T04:15:21;4.10;52.80
12309;DHT22;6217;48.150;17.142;2023-04-06T04:19:27;4.10;52.90
12309;DHT22;6217;48.150;17.142;2023-04-06T04:23:34;4.10;53.00
12309;DHT22;6217;48.150;17.142;2023-04-06T04:27:40;4.10;53.00
12309;DHT22;6217;48.150;17.142;2023-04-06T04:31:46;4.10;53.10
12309;DHT22;6217;48.150;17.142;2023-04-06T04:35:56;4.10;53.20
12309;DHT22;6217;48.150;17.142;2023-04-06T04:40:06;4.20;53.40
12309;DHT22;6217;48.150;17.142;2023-04-06T04:44:22;4.30;53.30
12309;DHT22;6217;48.150;17.142;2023-04-06T04:48:29;4.40;53.20
12309;DHT22;6217;48.150;17.142;2023-04-06T04:52:39;4.50;53.20
12309;DHT22;6217;48.150;17.142;2023-04-06T04:56:54;4.60;53.10
12309;DHT22;6217;48.150;17.142;2023-04-06T05:01:08;4.80;53.00
12309;DHT22;6217;48.150;17.142;2023-04-06T05:05:14;4.90;53.00
12309;DHT22;6217;48.150;17.142;2023-04-06T05:09:21;5.10;53.10
12309;DHT22;6217;48.150;17.142;2023-04-06T05:13:27;5.20;52.90
12309;DHT22;6217;48.150;17.142;2023-04-06T05:17:34;5.50;52.70
12309;DHT22;6217;48.150;17.142;2023-04-06T05:21:41;5.90;52.40
12309;DHT22;6217;48.150;17.142;2023-04-06T05:25:48;6.40;51.90
12309;DHT22;6217;48.150;17.142;2023-04-06T05:30:01;7.30;51.10
12309;DHT22;6217;48.150;17.142;2023-04-06T05:34:10;8.90;49.40
12309;DHT22;6217;48.150;17.142;2023-04-06T05:38:16;10.90;46.50
12309;DHT22;6217;48.150;17.142;2023-04-06T05:42:22;13.90;43.00
12309;DHT22;6217;48.150;17.142;2023-04-06T05:46:37;15.70;40.10
12309;DHT22;6217;48.150;17.142;2023-04-06T05:50:48;16.70;38.00
12309;DHT22;6217;48.150;17.142;2023-04-06T05:54:57;17.60;36.60
12309;DHT22;6217;48.150;17.142;2023-04-06T05:59:05;18.80;35.40
12309;DHT22;6217;48.150;17.142;2023-04-06T06:03:12;20.10;34.00
12309;DHT22;6217;48.150;17.142;2023-04-06T06:07:23;21.00;32.40
12309;DHT22;6217;48.150;17.142;2023-04-06T06:11:36;20.70;32.30
12309;DHT22;6217;48.150;17.142;2023-04-06T06:15:43;19.40;33.40
12309;DHT22;6217;48.150;17.142;2023-04-06T06:19:50;18.90;34.40
12309;DHT22;6217;48.150;17.142;2023-04-06T06:23:56;18.10;34.90
12309;DHT22;6217;48.150;17.142;2023-04-06T06:28:03;18.40;34.30
12309;DHT22;6217;48.150;17.142;2023-04-06T06:32:10;18.10;34.20
12309;DHT22;6217;48.150;17.142;2023-04-06T06:36:18;16.40;36.60
12309;DHT22;6217;48.150;17.142;2023-04-06T06:40:25;19.00;35.50
12309;DHT22;6217;48.150;17.142;2023-04-06T06:44:33;20.30;31.50
12309;DHT22;6217;48.150;17.142;2023-04-06T06:48:39;20.40;31.70
12309;DHT22;6217;48.150;17.142;2023-04-06T06:52:45;21.10;31.10
12309;DHT22;6217;48.150;17.142;2023-04-06T06:56:51;24.10;28.60
12309;DHT22;6217;48.150;17.142;2023-04-06T07:00:58;23.60;27.70
12309;DHT22;6217;48.150;17.142;2023-04-06T07:05:06;20.70;28.90
12309;DHT22;6217;48.150;17.142;2023-04-06T07:09:12;19.10;31.80
12309;DHT22;6217;48.150;17.142;2023-04-06T07:13:19;18.00;32.60
12309;DHT22;6217;48.150;17.142;2023-04-06T07:17:30;17.20;34.60
12309;DHT22;6217;48.150;17.142;2023-04-06T07:21:36;17.40;33.40
12309;DHT22;6217;48.150;17.142;2023-04-06T07:25:42;17.00;33.10
12309;DHT22;6217;48.150;17.142;2023-04-06T07:29:49;14.90;35.60
12309;DHT22;6217;48.150;17.142;2023-04-06T07:33:55;13.50;37.20
12309;DHT22;6217;48.150;17.142;2023-04-06T07:38:02;13.60;38.90
12309;DHT22;6217;48.150;17.142;2023-04-06T07:42:08;14.60;36.00
12309;DHT22;6217;48.150;17.142;2023-04-06T07:46:14;13.40;37.30
12309;DHT22;6217;48.150;17.142;2023-04-06T07:50:21;12.70;38.70
12309;DHT22;6217;48.150;17.142;2023-04-06T07:54:27;12.50;38.80
12309;DHT22;6217;48.150;17.142;2023-04-06T07:58:33;12.00;39.60
12309;DHT22;6217;48.150;17.142;2023-04-06T08:02:39;12.40;39.60
12309;DHT22;6217;48.150;17.142;2023-04-06T08:06:45;12.90;38.70
12309;DHT22;6217;48.150;17.142;2023-04-06T08:10:51;12.70;38.60
12309;DHT22;6217;48.150;17.142;2023-04-06T08:14:57;12.30;39.00
12309;DHT22;6217;48.150;17.142;2023-04-06T08:19:02;12.80;39.30
12309;DHT22;6217;48.150;17.142;2023-04-06T08:23:09;12.80;38.40
12309;DHT22;6217;48.150;17.142;2023-04-06T08:27:16;12.30;39.30
12309;DHT22;6217;48.150;17.142;2023-04-06T08:31:22;12.20;39.50
12309;DHT22;6217;48.150;17.142;2023-04-06T08:35:28;12.70;38.80
12309;DHT22;6217;48.150;17.142;2023-04-06T08:39:34;13.30;37.80
12309;DHT22;6217;48.150;17.142;2023-04-06T08:43:49;13.70;36.60
12309;DHT22;6217;48.150;17.142;2023-04-06T08:47:57;15.40;34.10
12309;DHT22;6217;48.150;17.142;2023-04-06T08:52:07;14.90;34.90
12309;DHT22;6217;48.150;17.142;2023-04-06T08:56:13;14.30;35.90
12309;DHT22;6217;48.150;17.142;2023-04-06T09:00:20;14.00;37.00
12309;DHT22;6217;48.150;17.142;2023-04-06T09:04:26;13.90;37.10
12309;DHT22;6217;48.150;17.142;2023-04-06T09:08:38;13.70;37.10
12309;DHT22;6217;48.150;17.142;2023-04-06T09:12:44;13.50;36.90
12309;DHT22;6217;48.150;17.142;2023-04-06T09:16:50;13.10;36.70
12309;DHT22;6217;48.150;17.142;2023-04-06T09:21:04;12.90;36.90
12309;DHT22;6217;48.150;17.142;2023-04-06T09:25:18;12.80;36.70
12309;DHT22;6217;48.150;17.142;2023-04-06T09:29:26;12.60;36.40
12309;DHT22;6217;48.150;17.142;2023-04-06T09:33:32;12.20;36.20
12309;DHT22;6217;48.150;17.142;2023-04-06T09:37:38;11.90;36.50
12309;DHT22;6217;48.150;17.142;2023-04-06T09:41:50;12.20;36.70
12309;DHT22;6217;48.150;17.142;2023-04-06T09:45:56;12.40;36.70
12309;DHT22;6217;48.150;17.142;2023-04-06T09:50:04;12.70;36.60
12309;DHT22;6217;48.150;17.142;2023-04-06T09:54:11;12.80;36.40
12309;DHT22;6217;48.150;17.142;2023-04-06T09:58:22;12.90;36.30
12309;DHT22;6217;48.150;17.142;2023-04-06T10:07:00;13.00;36.00
12309;DHT22;6217;48.150;17.142;2023-04-06T10:11:08;12.80;35.90
12309;DHT22;6217;48.150;17.142;2023-04-06T10:15:16;12.60;36.10
12309;DHT22;6217;48.150;17.142;2023-04-06T10:19:26;12.70;36.70
12309;DHT22;6217;48.150;17.142;2023-04-06T10:23:48;12.40;35.60
12309;DHT22;6217;48.150;17.142;2023-04-06T10:28:07;12.20;35.70
12309;DHT22;6217;48.150;17.142;2023-04-06T10:32:14;12.00;36.00
12309;DHT22;6217;48.150;17.142;2023-04-06T10:36:28;12.10;36.30
12309;DHT22;6217;48.150;17.142;2023-04-06T10:40:40;12.10;36.80
12309;DHT22;6217;48.150;17.142;2023-04-06T10:44:49;12.30;36.10
12309;DHT22;6217;48.150;17.142;2023-04-06T10:48:56;12.70;36.00
12309;DHT22;6217;48.150;17.142;2023-04-06T10:53:02;13.00;35.60
12309;DHT22;6217;48.150;17.142;2023-04-06T10:57:08;13.10;35.50
12309;DHT22;6217;48.150;17.142;2023-04-06T11:01:16;13.30;35.20
12309;DHT22;6217;48.150;17.142;2023-04-06T11:05:23;13.40;35.40
12309;DHT22;6217;48.150;17.142;2023-04-06T11:09:29;13.40;35.20
12309;DHT22;6217;48.150;17.142;2023-04-06T11:13:41;13.40;35.30
12309;DHT22;6217;48.150;17.142;2023-04-06T11:17:49;13.10;35.40
12309;DHT22;6217;48.150;17.142;2023-04-06T11:21:55;12.80;35.80
12309;DHT22;6217;48.150;17.142;2023-04-06T11:26:01;13.00;36.10
12309;DHT22;6217;48.150;17.142;2023-04-06T11:30:09;13.10;35.90
12309;DHT22;6217;48.150;17.142;2023-04-06T11:34:20;13.10;35.70
12309;DHT22;6217;48.150;17.142;2023-04-06T11:38:27;13.10;35.60
12309;DHT22;6217;48.150;17.142;2023-04-06T11:42:34;13.00;35.50
12309;DHT22;6217;48.150;17.142;2023-04-06T11:46:41;12.80;35.30
12309;DHT22;6217;48.150;17.142;2023-04-06T11:50:58;12.60;35.40
12309;DHT22;6217;48.150;17.142;2023-04-06T11:55:15;12.20;35.60
12309;DHT22;6217;48.150;17.142;2023-04-06T11:59:22;12.10;35.70
12309;DHT22;6217;48.150;17.142;2023-04-06T12:03:28;12.00;35.70
12309;DHT22;6217;48.150;17.142;2023-04-06T12:07:34;12.00;35.60
12309;DHT22;6217;48.150;17.142;2023-04-06T12:11:40;12.20;35.90
12309;DHT22;6217;48.150;17.142;2023-04-06T12:15:46;12.30;35.50
12309;DHT22;6217;48.150;17.142;2023-04-06T12:19:52;12.20;34.90
12309;DHT22;6217;48.150;17.142;2023-04-06T12:23:58;12.10;34.60
12309;DHT22;6217;48.150;17.142;2023-04-06T12:28:05;12.00;34.60
12309;DHT22;6217;48.150;17.142;2023-04-06T12:32:11;12.00;34.80
12309;DHT22;6217;48.150;17.142;2023-04-06T12:36:19;12.00;34.80
12309;DHT22;6217;48.150;17.142;2023-04-06T12:40:25;12.10;34.90
12309;DHT22;6217;48.150;17.142;2023-04-06T12:44:31;12.10;34.60
12309;DHT22;6217;48.150;17.142;2023-04-06T12:48:37;12.10;34.70
12309;DHT22;6217;48.150;17.142;2023-04-06T12:52:43;12.30;34.70
12309;DHT22;6217;48.150;17.142;2023-04-06T12:56:49;12.40;34.60
12309;DHT22;6217;48.150;17.142;2023-04-06T13:00:57;12.50;34.40
12309;DHT22;6217;48.150;17.142;2023-04-06T13:05:08;12.50;34.00
12309;DHT22;6217;48.150;17.142;2023-04-06T13:09:14;12.60;34.30
12309;DHT22;6217;48.150;17.142;2023-04-06T13:13:24;12.80;34.30
12309;DHT22;6217;48.150;17.142;2023-04-06T13:17:31;12.90;34.10
12309;DHT22;6217;48.150;17.142;2023-04-06T13:21:37;13.00;33.90
12309;DHT22;6217;48.150;17.142;2023-04-06T13:25:44;13.10;33.60
12309;DHT22;6217;48.150;17.142;2023-04-06T13:29:50;13.30;33.70
12309;DHT22;6217;48.150;17.142;2023-04-06T13:33:56;13.50;33.30
12309;DHT22;6217;48.150;17.142;2023-04-06T13:38:02;13.60;33.10
12309;DHT22;6217;48.150;17.142;2023-04-06T13:42:08;13.80;32.90
12309;DHT22;6217;48.150;17.142;2023-04-06T13:46:15;13.90;32.60
12309;DHT22;6217;48.150;17.142;2023-04-06T13:50:22;14.00;32.70
12309;DHT22;6217;48.150;17.142;2023-04-06T13:54:28;14.00;32.40
12309;DHT22;6217;48.150;17.142;2023-04-06T13:58:34;14.10;32.20
12309;DHT22;6217;48.150;17.142;2023-04-06T14:02:41;14.10;32.20
12309;DHT22;6217;48.150;17.142;2023-04-06T14:06:47;14.10;32.40
12309;DHT22;6217;48.150;17.142;2023-04-06T14:10:53;14.20;32.30
12309;DHT22;6217;48.150;17.142;2023-04-06T14:15:00;14.10;32.00
12309;DHT22;6217;48.150;17.142;2023-04-06T14:19:06;14.10;32.00
12309;DHT22;6217;48.150;17.142;2023-04-06T14:23:12;14.00;31.70
12309;DHT22;6217;48.150;17.142;2023-04-06T14:27:18;13.90;31.70
12309;DHT22;6217;48.150;17.142;2023-04-06T14:31:24;14.00;31.90
12309;DHT22;6217;48.150;17.142;2023-04-06T14:35:30;13.80;31.60
12309;DHT22;6217;48.150;17.142;2023-04-06T14:39:37;13.60;31.60
12309;DHT22;6217;48.150;17.142;2023-04-06T14:43:45;13.50;31.60
12309;DHT22;6217;48.150;17.142;2023-04-06T14:47:51;13.50;31.80
12309;DHT22;6217;48.150;17.142;2023-04-06T14:51:57;13.50;31.70
12309;DHT22;6217;48.150;17.142;2023-04-06T14:56:05;13.50;31.80
12309;DHT22;6217;48.150;17.142;2023-04-06T15:00:11;13.30;31.70
12309;DHT22;6217;48.150;17.142;2023-04-06T15:04:18;13.10;31.70
12309;DHT22;6217;48.150;17.142;2023-04-06T15:08:24;13.00;32.00
12309;DHT22;6217;48.150;17.142;2023-04-06T15:12:30;12.90;31.80
12309;DHT22;6217;48.150;17.142;2023-04-06T15:16:37;12.80;32.00
12309;DHT22;6217;48.150;17.142;2023-04-06T15:20:43;12.60;32.20
12309;DHT22;6217;48.150;17.142;2023-04-06T15:24:49;12.60;32.30
12309;DHT22;6217;48.150;17.142;2023-04-06T15:28:55;12.50;32.50
12309;DHT22;6217;48.150;17.142;2023-04-06T15:33:01;12.50;32.60
12309;DHT22;6217;48.150;17.142;2023-04-06T15:37:09;12.30;32.70
12309;DHT22;6217;48.150;17.142;2023-04-06T15:41:15;12.30;33.00
12309;DHT22;6217;48.150;17.142;2023-04-06T15:45:20;12.40;33.10
12309;DHT22;6217;48.150;17.142;2023-04-06T15:49:26;12.40;33.10
12309;DHT22;6217;48.150;17.142;2023-04-06T15:53:32;12.50;33.20
12309;DHT22;6217;48.150;17.142;2023-04-06T15:57:38;12.50;33.20
12309;DHT22;6217;48.150;17.142;2023-04-06T16:01:45;12.50;33.30
12309;DHT22;6217;48.150;17.142;2023-04-06T16:05:52;12.40;33.50
12309;DHT22;6217;48.150;17.142;2023-04-06T16:09:59;12.50;33.60
12309;DHT22;6217;48.150;17.142;2023-04-06T16:14:05;12.50;33.60
12309;DHT22;6217;48.150;17.142;2023-04-06T16:18:10;12.20;33.80
12309;DHT22;6217;48.150;17.142;2023-04-06T16:22:17;12.00;34.30
12309;DHT22;6217;48.150;17.142;2023-04-06T16:26:23;11.80;34.60
12309;DHT22;6217;48.150;17.142;2023-04-06T16:30:30;11.60;34.90
12309;DHT22;6217;48.150;17.142;2023-04-06T16:34:36;11.50;35.20
12309;DHT22;6217;48.150;17.142;2023-04-06T16:38:42;11.30;35.60
12309;DHT22;6217;48.150;17.142;2023-04-06T16:42:48;11.20;35.90
12309;DHT22;6217;48.150;17.142;2023-04-06T16:46:54;11.00;36.00
12309;DHT22;6217;48.150;17.142;2023-04-06T16:51:05;10.90;36.30
12309;DHT22;6217;48.150;17.142;2023-04-06T16:55:12;10.80;36.50
12309;DHT22;6217;48.150;17.142;2023-04-06T16:59:21;10.70;36.70
12309;DHT22;6217;48.150;17.142;2023-04-06T17:03:28;10.70;36.70
12309;DHT22;6217;48.150;17.142;2023-04-06T17:07:34;10.60;36.90
12309;DHT22;6217;48.150;17.142;2023-04-06T17:11:40;10.50;37.10
12309;DHT22;6217;48.150;17.142;2023-04-06T17:15:46;10.40;37.20
12309;DHT22;6217;48.150;17.142;2023-04-06T17:19:52;10.40;37.30
12309;DHT22;6217;48.150;17.142;2023-04-06T17:23:58;10.30;37.50
12309;DHT22;6217;48.150;17.142;2023-04-06T17:28:04;10.30;37.60
12309;DHT22;6217;48.150;17.142;2023-04-06T17:32:10;10.20;37.70
12309;DHT22;6217;48.150;17.142;2023-04-06T17:36:16;10.10;37.80
12309;DHT22;6217;48.150;17.142;2023-04-06T17:40:22;10.10;38.00
12309;DHT22;6217;48.150;17.142;2023-04-06T17:44:28;10.00;38.00
12309;DHT22;6217;48.150;17.142;2023-04-06T17:48:37;9.90;38.10
12309;DHT22;6217;48.150;17.142;2023-04-06T17:52:43;9.90;38.20
12309;DHT22;6217;48.150;17.142;2023-04-06T17:56:49;9.80;38.30
12309;DHT22;6217;48.150;17.142;2023-04-06T18:00:57;9.80;38.40
12309;DHT22;6217;48.150;17.142;2023-04-06T18:05:03;9.80;38.40
12309;DHT22;6217;48.150;17.142;2023-04-06T18:09:10;9.80;38.40
12309;DHT22;6217;48.150;17.142;2023-04-06T18:13:16;9.80;38.40
12309;DHT22;6217;48.150;17.142;2023-04-06T18:17:21;9.90;38.40
12309;DHT22;6217;48.150;17.142;2023-04-06T18:21:27;9.80;38.30
12309;DHT22;6217;48.150;17.142;2023-04-06T18:25:37;9.80;38.50
12309;DHT22;6217;48.150;17.142;2023-04-06T18:29:44;9.80;38.50
12309;DHT22;6217;48.150;17.142;2023-04-06T18:33:52;9.80;38.60
12309;DHT22;6217;48.150;17.142;2023-04-06T18:37:58;9.80;38.80
12309;DHT22;6217;48.150;17.142;2023-04-06T18:42:04;9.70;38.80
12309;DHT22;6217;48.150;17.142;2023-04-06T18:46:12;9.80;38.80
12309;DHT22;6217;48.150;17.142;2023-04-06T18:50:18;9.80;38.80
12309;DHT22;6217;48.150;17.142;2023-04-06T18:54:24;9.80;38.80
12309;DHT22;6217;48.150;17.142;2023-04-06T18:58:30;9.90;38.80
12309;DHT22;6217;48.150;17.142;2023-04-06T19:02:36;9.90;39.00
12309;DHT22;6217;48.150;17.142;2023-04-06T19:06:42;9.70;39.20
12309;DHT22;6217;48.150;17.142;2023-04-06T19:10:49;9.60;39.50
12309;DHT22;6217;48.150;17.142;2023-04-06T19:14:55;9.60;39.70
12309;DHT22;6217;48.150;17.142;2023-04-06T19:19:01;9.50;40.10
12309;DHT22;6217;48.150;17.142;2023-04-06T19:23:07;9.50;40.20
12309;DHT22;6217;48.150;17.142;2023-04-06T19:27:14;9.50;40.20
12309;DHT22;6217;48.150;17.142;2023-04-06T19:31:20;9.50;40.30
12309;DHT22;6217;48.150;17.142;2023-04-06T19:35:26;9.40;40.50
12309;DHT22;6217;48.150;17.142;2023-04-06T19:39:33;9.30;40.60
12309;DHT22;6217;48.150;17.142;2023-04-06T19:43:41;9.30;40.70
12309;DHT22;6217;48.150;17.142;2023-04-06T19:47:47;9.30;40.90
12309;DHT22;6217;48.150;17.142;2023-04-06T19:51:54;9.20;41.00
12309;DHT22;6217;48.150;17.142;2023-04-06T19:56:00;9.30;41.00
12309;DHT22;6217;48.150;17.142;2023-04-06T20:00:06;9.20;41.10
12309;DHT22;6217;48.150;17.142;2023-04-06T20:04:15;9.20;41.30
12309;DHT22;6217;48.150;17.142;2023-04-06T20:08:21;9.20;41.30
12309;DHT22;6217;48.150;17.142;2023-04-06T20:12:27;9.30;41.30
12309;DHT22;6217;48.150;17.142;2023-04-06T20:16:33;9.30;41.40
12309;DHT22;6217;48.150;17.142;2023-04-06T20:20:39;9.30;41.50
12309;DHT22;6217;48.150;17.142;2023-04-06T20:24:45;9.30;41.50
12309;DHT22;6217;48.150;17.142;2023-04-06T20:28:51;9.30;41.80
12309;DHT22;6217;48.150;17.142;2023-04-06T20:32:57;9.10;42.20
12309;DHT22;6217;48.150;17.142;2023-04-06T20:37:03;9.10;42.30
12309;DHT22;6217;48.150;17.142;2023-04-06T20:41:09;9.20;42.40
12309;DHT22;6217;48.150;17.142;2023-04-06T20:45:15;9.20;42.30
12309;DHT22;6217;48.150;17.142;2023-04-06T20:49:21;9.10;42.70
12309;DHT22;6217;48.150;17.142;2023-04-06T20:53:28;9.10;42.90
12309;DHT22;6217;48.150;17.142;2023-04-06T20:57:34;9.00;43.20
12309;DHT22;6217;48.150;17.142;2023-04-06T21:01:41;9.00;43.20
12309;DHT22;6217;48.150;17.142;2023-04-06T21:05:51;8.90;43.60
12309;DHT22;6217;48.150;17.142;2023-04-06T21:09:58;8.90;44.40
12309;DHT22;6217;48.150;17.142;2023-04-06T21:14:04;8.90;43.80
12309;DHT22;6217;48.150;17.142;2023-04-06T21:18:10;8.90;43.90
12309;DHT22;6217;48.150;17.142;2023-04-06T21:22:16;8.80;44.10
12309;DHT22;6217;48.150;17.142;2023-04-06T21:26:22;8.70;44.50
12309;DHT22;6217;48.150;17.142;2023-04-06T21:30:28;8.70;44.60
12309;DHT22;6217;48.150;17.142;2023-04-06T21:34:41;8.70;44.70
12309;DHT22;6217;48.150;17.142;2023-04-06T21:38:50;8.60;44.90
12309;DHT22;6217;48.150;17.142;2023-04-06T21:42:56;8.60;45.20
12309;DHT22;6217;48.150;17.142;2023-04-06T21:47:01;8.50;45.50
12309;DHT22;6217;48.150;17.142;2023-04-06T21:51:07;8.40;45.70
12309;DHT22;6217;48.150;17.142;2023-04-06T21:55:13;8.40;46.00
12309;DHT22;6217;48.150;17.142;2023-04-06T21:59:19;8.30;46.10
12309;DHT22;6217;48.150;17.142;2023-04-06T22:03:26;8.30;46.20
12309;DHT22;6217;48.150;17.142;2023-04-06T22:07:32;8.30;46.50
12309;DHT22;6217;48.150;17.142;2023-04-06T22:11:38;8.30;46.40
12309;DHT22;6217;48.150;17.142;2023-04-06T22:15:44;8.30;46.50
12309;DHT22;6217;48.150;17.142;2023-04-06T22:19:50;8.20;46.80
12309;DHT22;6217;48.150;17.142;2023-04-06T22:23:57;8.20;47.00
12309;DHT22;6217;48.150;17.142;2023-04-06T22:28:03;8.10;47.10
12309;DHT22;6217;48.150;17.142;2023-04-06T22:32:10;8.10;47.10
12309;DHT22;6217;48.150;17.142;2023-04-06T22:36:16;8.20;46.90
12309;DHT22;6217;48.150;17.142;2023-04-06T22:40:22;8.30;46.90
12309;DHT22;6217;48.150;17.142;2023-04-06T22:44:28;8.30;47.10
12309;DHT22;6217;48.150;17.142;2023-04-06T22:48:34;8.30;47.10
12309;DHT22;6217;48.150;17.142;2023-04-06T22:52:40;8.30;47.00
12309;DHT22;6217;48.150;17.142;2023-04-06T22:56:46;8.30;47.10
12309;DHT22;6217;48.150;17.142;2023-04-06T23:00:52;8.20;47.40
12309;DHT22;6217;48.150;17.142;2023-04-06T23:04:57;8.20;47.50
12309;DHT22;6217;48.150;17.142;2023-04-06T23:09:03;8.30;47.30
12309;DHT22;6217;48.150;17.142;2023-04-06T23:13:09;8.20;47.50
12309;DHT22;6217;48.150;17.142;2023-04-06T23:17:15;8.30;47.60
12309;DHT22;6217;48.150;17.142;2023-04-06T23:21:21;8.20;47.70
12309;DHT22;6217;48.150;17.142;2023-04-06T23:25:27;8.20;47.90
12309;DHT22;6217;48.150;17.142;2023-04-06T23:29:33;8.20;48.70
12309;DHT22;6217;48.150;17.142;2023-04-06T23:33:39;8.30;47.90
12309;DHT22;6217;48.150;17.142;2023-04-06T23:37:45;8.40;47.60
12309;DHT22;6217;48.150;17.142;2023-04-06T23:41:51;8.50;47.50
12309;DHT22;6217;48.150;17.142;2023-04-06T23:45:57;8.40;47.50
12309;DHT22;6217;48.150;17.142;2023-04-06T23:50:03;8.40;47.80
12309;DHT22;6217;48.150;17.142;2023-04-06T23:54:09;8.30;47.90
12309;DHT22;6217;48.150;17.142;2023-04-06T23:58:15;8.30;48.10
